sensor_id;sensor_type;location;lat;lon;timestamp;pressure;altitude;pressure_sealevel;temperature;humidity
27980;BME280;15315;50.836;4.430;2024-01-30T00:09:57;102059.94;;;16.04;64.95
27980;BME280;15315;50.836;4.430;2024-01-30T00:19:58;102059.84;;;16.91;60.74
27980;BME280;15315;50.836;4.430;2024-01-30T00:29:58;102045.13;;;16.21;62.13
27980;BME280;15315;50.836;4.430;2024-01-30T00:39:58;102036.19;;;16.91;61.47
27980;BME280;15315;50.836;4.430;2024-01-30T00:49:59;102027.63;;;17.08;60.90
27980;BME280;15315;50.836;4.430;2024-01-30T01:00:00;102026.63;;;16.62;63.27
27980;BME280;15315;50.836;4.430;2024-01-30T01:10:01;102023.44;;;16.92;61.99
27980;BME280;15315;50.836;4.430;2024-01-30T01:20:02;102009.34;;;17.21;61.24
27980;BME280;15315;50.836;4.430;2024-01-30T01:30:03;102005.09;;;17.06;62.62
27980;BME280;15315;50.836;4.430;2024-01-30T01:40:06;102004.31;;;17.04;63.13
27980;BME280;15315;50.836;4.430;2024-01-30T01:50:09;101996.91;;;17.52;61.45
27980;BME280;15315;50.836;4.430;2024-01-30T02:00:11;101997.06;;;17.95;59.52
27980;BME280;15315;50.836;4.430;2024-01-30T02:10:12;101990.25;;;17.78;59.56
27980;BME280;15315;50.836;4.430;2024-01-30T02:20:13;101976.75;;;17.88;59.62
27980;BME280;15315;50.836;4.430;2024-01-30T02:30:14;101981.28;;;17.65;60.71
27980;BME280;15315;50.836;4.430;2024-01-30T02:40:14;101986.53;;;17.11;63.35
27980;BME280;15315;50.836;4.430;2024-01-30T02:50:15;101986.56;;;17.22;63.42
27980;BME280;15315;50.836;4.430;2024-01-30T03:00:16;101979.16;;;17.47;62.51
27980;BME280;15315;50.836;4.430;2024-01-30T03:10:17;101982.50;;;17.28;63.60
27980;BME280;15315;50.836;4.430;2024-01-30T03:20:17;101988.72;;;17.06;64.18
27980;BME280;15315;50.836;4.430;2024-01-30T03:30:19;101977.78;;;17.30;63.87
27980;BME280;15315;50.836;4.430;2024-01-30T03:40:20;101981.31;;;17.08;64.00
27980;BME280;15315;50.836;4.430;2024-01-30T03:50:21;101972.63;;;17.71;62.11
27980;BME280;15315;50.836;4.430;2024-01-30T04:00:21;101964.06;;;17.54;62.81
27980;BME280;15315;50.836;4.430;2024-01-30T04:10:23;101969.66;;;18.19;60.13
27980;BME280;15315;50.836;4.430;2024-01-30T04:20:24;101968.28;;;17.80;61.08
27980;BME280;15315;50.836;4.430;2024-01-30T04:30:25;101967.19;;;17.93;60.49
27980;BME280;15315;50.836;4.430;2024-01-30T04:40:26;101969.88;;;17.60;61.26
27980;BME280;15315;50.836;4.430;2024-01-30T04:50:26;101959.84;;;18.05;59.50
27980;BME280;15315;50.836;4.430;2024-01-30T05:00:28;101962.69;;;17.59;60.95
27980;BME280;15315;50.836;4.430;2024-01-30T05:10:28;101961.50;;;17.97;60.03
27980;BME280;15315;50.836;4.430;2024-01-30T05:20:29;101957.38;;;18.13;59.20
27980;BME280;15315;50.836;4.430;2024-01-30T05:30:30;101955.78;;;17.88;59.68
27980;BME280;15315;50.836;4.430;2024-01-30T05:40:30;101961.25;;;17.09;61.78
27980;BME280;15315;50.836;4.430;2024-01-30T05:50:32;101966.53;;;17.57;60.97
27980;BME280;15315;50.836;4.430;2024-01-30T06:00:32;101957.03;;;18.07;59.40
27980;BME280;15315;50.836;4.430;2024-01-30T06:10:32;101982.94;;;18.12;58.58
27980;BME280;15315;50.836;4.430;2024-01-30T06:20:33;101985.63;;;17.46;60.16
27980;BME280;15315;50.836;4.430;2024-01-30T06:30:33;102003.50;;;17.83;59.26
27980;BME280;15315;50.836;4.430;2024-01-30T06:40:34;102029.34;;;17.33;61.44
27980;BME280;15315;50.836;4.430;2024-01-30T06:50:34;102022.06;;;17.67;60.47
27980;BME280;15315;50.836;4.430;2024-01-30T07:00:35;102034.19;;;17.52;61.09
27980;BME280;15315;50.836;4.430;2024-01-30T07:10:36;102036.22;;;17.15;62.81
27980;BME280;15315;50.836;4.430;2024-01-30T07:20:36;102056.25;;;17.38;62.61
27980;BME280;15315;50.836;4.430;2024-01-30T07:30:37;102072.81;;;17.35;63.62
27980;BME280;15315;50.836;4.430;2024-01-30T07:40:38;102099.47;;;17.07;65.55
27980;BME280;15315;50.836;4.430;2024-01-30T07:50:39;102092.19;;;16.72;68.01
27980;BME280;15315;50.836;4.430;2024-01-30T08:00:39;102093.03;;;17.08;66.51
27980;BME280;15315;50.836;4.430;2024-01-30T08:10:40;102110.03;;;17.12;66.80
27980;BME280;15315;50.836;4.430;2024-01-30T08:20:40;102108.78;;;17.40;66.17
27980;BME280;15315;50.836;4.430;2024-01-30T08:30:40;102114.34;;;17.73;65.15
27980;BME280;15315;50.836;4.430;2024-01-30T08:40:41;102106.16;;;17.73;65.16
27980;BME280;15315;50.836;4.430;2024-01-30T08:50:41;102123.13;;;18.33;63.34
27980;BME280;15315;50.836;4.430;2024-01-30T09:00:42;102129.91;;;17.49;66.29
27980;BME280;15315;50.836;4.430;2024-01-30T09:10:42;102142.84;;;18.04;64.58
27980;BME280;15315;50.836;4.430;2024-01-30T09:20:44;102143.19;;;17.29;67.38
27980;BME280;15315;50.836;4.430;2024-01-30T09:30:47;102152.31;;;17.41;68.82
27980;BME280;15315;50.836;4.430;2024-01-30T09:40:54;102170.16;;;17.21;69.55
27980;BME280;15315;50.836;4.430;2024-01-30T09:50:58;102191.69;;;16.88;73.53
27980;BME280;15315;50.836;4.430;2024-01-30T10:00:58;102193.66;;;17.59;69.35
27980;BME280;15315;50.836;4.430;2024-01-30T10:11:00;102199.22;;;17.10;72.82
27980;BME280;15315;50.836;4.430;2024-01-30T10:21:00;102215.00;;;17.05;71.65
27980;BME280;15315;50.836;4.430;2024-01-30T10:31:01;102222.81;;;17.69;70.20
27980;BME280;15315;50.836;4.430;2024-01-30T10:41:02;102239.19;;;17.69;68.38
27980;BME280;15315;50.836;4.430;2024-01-30T10:51:04;102240.06;;;18.28;65.70
27980;BME280;15315;50.836;4.430;2024-01-30T11:01:06;102246.66;;;17.31;67.42
27980;BME280;15315;50.836;4.430;2024-01-30T11:11:09;102244.31;;;17.50;66.44
27980;BME280;15315;50.836;4.430;2024-01-30T11:21:13;102252.16;;;17.18;65.84
27980;BME280;15315;50.836;4.430;2024-01-30T11:31:18;102259.59;;;16.79;64.59
27980;BME280;15315;50.836;4.430;2024-01-30T11:41:19;102264.59;;;16.97;60.53
27980;BME280;15315;50.836;4.430;2024-01-30T11:51:21;102271.94;;;17.46;57.38
27980;BME280;15315;50.836;4.430;2024-01-30T12:01:21;102264.84;;;17.43;54.96
27980;BME280;15315;50.836;4.430;2024-01-30T12:11:22;102261.72;;;17.24;53.81
27980;BME280;15315;50.836;4.430;2024-01-30T12:21:23;102279.44;;;16.68;55.14
27980;BME280;15315;50.836;4.430;2024-01-30T12:31:28;102289.69;;;16.64;53.96
27980;BME280;15315;50.836;4.430;2024-01-30T12:41:28;102277.06;;;17.38;50.33
27980;BME280;15315;50.836;4.430;2024-01-30T12:51:34;102295.38;;;16.61;50.35
27980;BME280;15315;50.836;4.430;2024-01-30T13:01:35;102305.72;;;15.90;52.53
27980;BME280;15315;50.836;4.430;2024-01-30T13:11:35;102313.63;;;17.35;50.59
27980;BME280;15315;50.836;4.430;2024-01-30T13:21:36;102310.47;;;16.91;51.89
27980;BME280;15315;50.836;4.430;2024-01-30T13:31:37;102322.59;;;17.12;51.48
27980;BME280;15315;50.836;4.430;2024-01-30T13:41:40;102321.50;;;16.64;52.01
27980;BME280;15315;50.836;4.430;2024-01-30T13:51:42;102341.66;;;17.24;49.78
27980;BME280;15315;50.836;4.430;2024-01-30T14:01:42;102333.47;;;17.37;48.49
27980;BME280;15315;50.836;4.430;2024-01-30T14:11:43;102360.00;;;17.22;49.65
27980;BME280;15315;50.836;4.430;2024-01-30T14:21:43;102370.44;;;17.28;49.87
27980;BME280;15315;50.836;4.430;2024-01-30T14:31:43;102374.94;;;16.13;50.99
27980;BME280;15315;50.836;4.430;2024-01-30T14:41:44;102397.63;;;16.53;50.29
27980;BME280;15315;50.836;4.430;2024-01-30T14:51:44;102399.50;;;16.78;51.16
27980;BME280;15315;50.836;4.430;2024-01-30T15:01:45;102421.03;;;15.88;54.73
27980;BME280;15315;50.836;4.430;2024-01-30T15:11:45;102438.84;;;15.79;55.27
27980;BME280;15315;50.836;4.430;2024-01-30T15:21:46;102444.91;;;16.25;53.69
27980;BME280;15315;50.836;4.430;2024-01-30T15:31:46;102459.91;;;16.84;51.88
27980;BME280;15315;50.836;4.430;2024-01-30T15:41:46;102463.81;;;15.72;52.87
27980;BME280;15315;50.836;4.430;2024-01-30T15:51:47;102482.97;;;16.11;52.17
27980;BME280;15315;50.836;4.430;2024-01-30T16:01:48;102509.78;;;15.18;53.00
27980;BME280;15315;50.836;4.430;2024-01-30T16:11:50;102523.53;;;16.16;52.14
27980;BME280;15315;50.836;4.430;2024-01-30T16:21:50;102534.63;;;15.84;53.05
27980;BME280;15315;50.836;4.430;2024-01-30T16:31:50;102538.09;;;15.14;54.50
27980;BME280;15315;50.836;4.430;2024-01-30T16:41:51;102541.31;;;15.51;53.70
27980;BME280;15315;50.836;4.430;2024-01-30T16:51:51;102558.34;;;14.48;58.83
27980;BME280;15315;50.836;4.430;2024-01-30T17:01:52;102572.97;;;15.52;59.38
27980;BME280;15315;50.836;4.430;2024-01-30T17:11:52;102593.59;;;15.10;62.76
27980;BME280;15315;50.836;4.430;2024-01-30T17:21:52;102594.31;;;15.28;62.16
27980;BME280;15315;50.836;4.430;2024-01-30T17:31:53;102617.97;;;15.85;60.76
27980;BME280;15315;50.836;4.430;2024-01-30T17:41:53;102627.31;;;16.52;58.26
27980;BME280;15315;50.836;4.430;2024-01-30T17:51:54;102640.06;;;16.37;59.95
27980;BME280;15315;50.836;4.430;2024-01-30T18:01:55;102661.25;;;16.60;57.98
27980;BME280;15315;50.836;4.430;2024-01-30T18:11:55;102666.97;;;15.56;59.57
27980;BME280;15315;50.836;4.430;2024-01-30T18:21:56;102669.06;;;15.80;57.98
27980;BME280;15315;50.836;4.430;2024-01-30T18:31:56;102679.13;;;15.03;58.66
27980;BME280;15315;50.836;4.430;2024-01-30T18:41:57;102686.41;;;15.64;58.01
27980;BME280;15315;50.836;4.430;2024-01-30T18:51:58;102687.56;;;15.60;58.15
27980;BME280;15315;50.836;4.430;2024-01-30T19:01:59;102698.13;;;15.94;56.79
27980;BME280;15315;50.836;4.430;2024-01-30T19:11:59;102701.19;;;15.74;57.05
27980;BME280;15315;50.836;4.430;2024-01-30T19:22:00;102711.63;;;15.81;56.44
27980;BME280;15315;50.836;4.430;2024-01-30T19:32:00;102709.03;;;15.64;57.32
27980;BME280;15315;50.836;4.430;2024-01-30T19:42:01;102733.63;;;15.92;56.50
27980;BME280;15315;50.836;4.430;2024-01-30T19:52:02;102731.91;;;16.20;56.32
27980;BME280;15315;50.836;4.430;2024-01-30T20:02:07;102736.34;;;14.84;59.50
27980;BME280;15315;50.836;4.430;2024-01-30T20:12:07;102749.88;;;15.78;56.64
27980;BME280;15315;50.836;4.430;2024-01-30T20:22:08;102756.63;;;15.87;56.90
27980;BME280;15315;50.836;4.430;2024-01-30T20:32:08;102760.25;;;16.31;55.38
27980;BME280;15315;50.836;4.430;2024-01-30T20:42:09;102781.41;;;16.26;55.58
27980;BME280;15315;50.836;4.430;2024-01-30T20:52:10;102801.47;;;15.80;57.06
27980;BME280;15315;50.836;4.430;2024-01-30T21:02:11;102790.38;;;15.53;57.35
27980;BME280;15315;50.836;4.430;2024-01-30T21:12:12;102799.50;;;15.97;56.33
27980;BME280;15315;50.836;4.430;2024-01-30T21:22:12;102806.72;;;15.83;56.84
27980;BME280;15315;50.836;4.430;2024-01-30T21:32:13;102822.06;;;15.99;56.72
27980;BME280;15315;50.836;4.430;2024-01-30T21:42:13;102836.91;;;15.16;59.14
27980;BME280;15315;50.836;4.430;2024-01-30T21:52:14;102840.47;;;15.01;60.65
27980;BME280;15315;50.836;4.430;2024-01-30T22:02:14;102839.31;;;15.69;59.00
27980;BME280;15315;50.836;4.430;2024-01-30T22:12:14;102851.47;;;15.30;59.97
27980;BME280;15315;50.836;4.430;2024-01-30T22:22:15;102859.03;;;15.41;59.58
27980;BME280;15315;50.836;4.430;2024-01-30T22:32:15;102857.25;;;14.92;60.60
27980;BME280;15315;50.836;4.430;2024-01-30T22:42:16;102859.66;;;15.46;60.36
27980;BME280;15315;50.836;4.430;2024-01-30T22:52:16;102862.81;;;15.38;59.67
27980;BME280;15315;50.836;4.430;2024-01-30T23:02:17;102864.31;;;15.44;59.48
27980;BME280;15315;50.836;4.430;2024-01-30T23:12:18;102868.88;;;15.43;59.20
27980;BME280;15315;50.836;4.430;2024-01-30T23:22:19;102862.53;;;15.90;57.87
27980;BME280;15315;50.836;4.430;2024-01-30T23:32:19;102871.44;;;15.29;59.67
27980;BME280;15315;50.836;4.430;2024-01-30T23:42:20;102870.34;;;15.16;60.41
27980;BME280;15315;50.836;4.430;2024-01-30T23:52:20;102863.66;;;15.86;57.92
